sensor_id;sensor_type;location;lat;lon;timestamp;P1;durP1;ratioP1;P2;durP2;ratioP2
53293;SDS011;39181;53.440;5.644;2022-08-06T00:00:41;1.50;;;0.20;;
53293;SDS011;39181;53.440;5.644;2022-08-06T00:03:07;0.52;;;0.20;;
53293;SDS011;39181;53.440;5.644;2022-08-06T00:05:33;3.92;;;0.50;;
53293;SDS011;39181;53.440;5.644;2022-08-06T00:07:59;4.28;;;0.32;;
53293;SDS011;39181;53.440;5.644;2022-08-06T00:10:25;3.47;;;0.20;;
53293;SDS011;39181;53.440;5.644;2022-08-06T00:12:51;3.00;;;0.20;;
53293;SDS011;39181;53.440;5.644;2022-08-06T00:15:17;4.55;;;0.20;;
53293;SDS011;39181;53.440;5.644;2022-08-06T00:17:44;3.75;;;0.45;;
53293;SDS011;39181;53.440;5.644;2022-08-06T00:20:10;7.13;;;0.55;;
53293;SDS011;39181;53.440;5.644;2022-08-06T00:22:37;3.10;;;0.15;;
53293;SDS011;39181;53.440;5.644;2022-08-06T00:25:03;6.35;;;0.60;;
53293;SDS011;39181;53.440;5.644;2022-08-06T00:27:29;2.25;;;0.30;;
53293;SDS011;39181;53.440;5.644;2022-08-06T00:29:55;0.88;;;0.22;;
53293;SDS011;39181;53.440;5.644;2022-08-06T00:32:21;1.27;;;0.20;;
53293;SDS011;39181;53.440;5.644;2022-08-06T00:34:46;1.85;;;0.28;;
53293;SDS011;39181;53.440;5.644;2022-08-06T00:37:12;2.88;;;0.30;;
53293;SDS011;39181;53.440;5.644;2022-08-06T00:39:37;2.63;;;0.57;;
53293;SDS011;39181;53.440;5.644;2022-08-06T00:42:03;5.18;;;0.30;;
53293;SDS011;39181;53.440;5.644;2022-08-06T00:44:29;1.85;;;0.70;;
53293;SDS011;39181;53.440;5.644;2022-08-06T00:46:54;2.20;;;0.20;;
53293;SDS011;39181;53.440;5.644;2022-08-06T00:49:20;3.28;;;0.32;;
53293;SDS011;39181;53.440;5.644;2022-08-06T00:51:45;4.97;;;0.38;;
53293;SDS011;39181;53.440;5.644;2022-08-06T00:54:11;2.05;;;0.40;;
53293;SDS011;39181;53.440;5.644;2022-08-06T00:56:37;3.00;;;0.25;;
53293;SDS011;39181;53.440;5.644;2022-08-06T00:59:03;0.88;;;0.20;;
53293;SDS011;39181;53.440;5.644;2022-08-06T01:01:29;3.33;;;0.35;;
53293;SDS011;39181;53.440;5.644;2022-08-06T01:03:58;1.48;;;0.30;;
53293;SDS011;39181;53.440;5.644;2022-08-06T01:06:23;1.10;;;0.20;;
53293;SDS011;39181;53.440;5.644;2022-08-06T01:08:49;4.60;;;0.50;;
53293;SDS011;39181;53.440;5.644;2022-08-06T01:11:14;2.92;;;0.30;;
53293;SDS011;39181;53.440;5.644;2022-08-06T01:13:40;3.92;;;0.30;;
53293;SDS011;39181;53.440;5.644;2022-08-06T01:18:44;1.33;;;0.30;;
53293;SDS011;39181;53.440;5.644;2022-08-06T01:21:35;3.58;;;0.32;;
53293;SDS011;39181;53.440;5.644;2022-08-06T01:34:33;3.20;;;0.45;;
53293;SDS011;39181;53.440;5.644;2022-08-06T01:37:21;7.63;;;0.95;;
53293;SDS011;39181;53.440;5.644;2022-08-06T01:39:55;0.95;;;0.30;;
53293;SDS011;39181;53.440;5.644;2022-08-06T01:42:25;3.60;;;0.32;;
53293;SDS011;39181;53.440;5.644;2022-08-06T01:44:53;2.80;;;0.40;;
53293;SDS011;39181;53.440;5.644;2022-08-06T01:47:21;2.00;;;0.20;;
53293;SDS011;39181;53.440;5.644;2022-08-06T01:49:51;3.78;;;0.38;;
53293;SDS011;39181;53.440;5.644;2022-08-06T01:52:19;1.35;;;0.82;;
53293;SDS011;39181;53.440;5.644;2022-08-06T01:54:48;1.25;;;0.32;;
53293;SDS011;39181;53.440;5.644;2022-08-06T01:57:15;3.30;;;0.45;;
53293;SDS011;39181;53.440;5.644;2022-08-06T01:59:45;2.58;;;0.20;;
53293;SDS011;39181;53.440;5.644;2022-08-06T02:02:15;1.45;;;0.30;;
53293;SDS011;39181;53.440;5.644;2022-08-06T02:04:45;3.45;;;0.43;;
53293;SDS011;39181;53.440;5.644;2022-08-06T02:07:11;2.30;;;0.50;;
53293;SDS011;39181;53.440;5.644;2022-08-06T02:09:39;2.35;;;0.40;;
53293;SDS011;39181;53.440;5.644;2022-08-06T02:12:09;2.17;;;0.30;;
53293;SDS011;39181;53.440;5.644;2022-08-06T02:14:45;3.53;;;0.30;;
53293;SDS011;39181;53.440;5.644;2022-08-06T02:17:18;2.65;;;0.40;;
53293;SDS011;39181;53.440;5.644;2022-08-06T02:19:49;2.15;;;0.50;;
53293;SDS011;39181;53.440;5.644;2022-08-06T02:22:17;2.85;;;0.50;;
53293;SDS011;39181;53.440;5.644;2022-08-06T02:24:45;2.60;;;0.38;;
53293;SDS011;39181;53.440;5.644;2022-08-06T02:27:11;4.10;;;0.63;;
53293;SDS011;39181;53.440;5.644;2022-08-06T02:29:39;2.60;;;0.60;;
53293;SDS011;39181;53.440;5.644;2022-08-06T02:32:06;2.67;;;0.77;;
53293;SDS011;39181;53.440;5.644;2022-08-06T02:34:32;2.40;;;0.40;;
53293;SDS011;39181;53.440;5.644;2022-08-06T02:37:09;3.83;;;0.40;;
53293;SDS011;39181;53.440;5.644;2022-08-06T02:39:40;2.88;;;0.63;;
53293;SDS011;39181;53.440;5.644;2022-08-06T02:42:15;2.67;;;0.80;;
53293;SDS011;39181;53.440;5.644;2022-08-06T02:45:08;4.13;;;0.50;;
53293;SDS011;39181;53.440;5.644;2022-08-06T02:47:57;2.42;;;0.55;;
53293;SDS011;39181;53.440;5.644;2022-08-06T02:50:36;5.88;;;0.60;;
53293;SDS011;39181;53.440;5.644;2022-08-06T02:53:08;2.67;;;0.50;;
53293;SDS011;39181;53.440;5.644;2022-08-06T02:55:37;3.22;;;0.50;;
53293;SDS011;39181;53.440;5.644;2022-08-06T02:58:20;1.05;;;0.20;;
53293;SDS011;39181;53.440;5.644;2022-08-06T03:00:56;5.82;;;0.60;;
53293;SDS011;39181;53.440;5.644;2022-08-06T03:03:24;4.18;;;0.50;;
53293;SDS011;39181;53.440;5.644;2022-08-06T03:05:51;4.07;;;0.77;;
53293;SDS011;39181;53.440;5.644;2022-08-06T03:08:20;5.40;;;0.77;;
53293;SDS011;39181;53.440;5.644;2022-08-06T03:10:48;2.65;;;0.40;;
53293;SDS011;39181;53.440;5.644;2022-08-06T03:13:16;6.00;;;0.55;;
53293;SDS011;39181;53.440;5.644;2022-08-06T03:15:42;2.75;;;0.47;;
53293;SDS011;39181;53.440;5.644;2022-08-06T03:18:09;1.80;;;0.32;;
53293;SDS011;39181;53.440;5.644;2022-08-06T03:20:37;1.52;;;0.40;;
53293;SDS011;39181;53.440;5.644;2022-08-06T03:23:06;4.60;;;0.40;;
53293;SDS011;39181;53.440;5.644;2022-08-06T03:25:34;3.38;;;0.30;;
53293;SDS011;39181;53.440;5.644;2022-08-06T03:28:01;3.50;;;0.30;;
53293;SDS011;39181;53.440;5.644;2022-08-06T03:30:28;2.47;;;0.30;;
53293;SDS011;39181;53.440;5.644;2022-08-06T03:32:54;2.45;;;0.35;;
53293;SDS011;39181;53.440;5.644;2022-08-06T03:35:21;1.55;;;0.38;;
53293;SDS011;39181;53.440;5.644;2022-08-06T03:37:48;6.22;;;0.73;;
53293;SDS011;39181;53.440;5.644;2022-08-06T03:40:16;4.53;;;0.40;;
53293;SDS011;39181;53.440;5.644;2022-08-06T03:42:43;4.38;;;0.30;;
53293;SDS011;39181;53.440;5.644;2022-08-06T03:45:09;3.63;;;0.50;;
53293;SDS011;39181;53.440;5.644;2022-08-06T03:47:42;1.05;;;0.10;;
53293;SDS011;39181;53.440;5.644;2022-08-06T03:50:12;2.25;;;0.40;;
53293;SDS011;39181;53.440;5.644;2022-08-06T03:52:49;2.85;;;1.08;;
53293;SDS011;39181;53.440;5.644;2022-08-06T03:55:27;2.40;;;0.30;;
53293;SDS011;39181;53.440;5.644;2022-08-06T03:57:56;2.03;;;0.40;;
53293;SDS011;39181;53.440;5.644;2022-08-06T04:00:25;1.50;;;0.25;;
53293;SDS011;39181;53.440;5.644;2022-08-06T04:02:54;2.70;;;0.40;;
53293;SDS011;39181;53.440;5.644;2022-08-06T04:05:26;1.20;;;0.13;;
53293;SDS011;39181;53.440;5.644;2022-08-06T04:07:57;3.45;;;0.30;;
53293;SDS011;39181;53.440;5.644;2022-08-06T04:10:26;2.00;;;0.50;;
53293;SDS011;39181;53.440;5.644;2022-08-06T04:13:03;1.55;;;0.20;;
53293;SDS011;39181;53.440;5.644;2022-08-06T04:15:40;2.28;;;0.40;;
53293;SDS011;39181;53.440;5.644;2022-08-06T04:18:07;4.50;;;0.47;;
53293;SDS011;39181;53.440;5.644;2022-08-06T04:20:35;4.75;;;0.50;;
53293;SDS011;39181;53.440;5.644;2022-08-06T04:23:02;2.72;;;0.35;;
53293;SDS011;39181;53.440;5.644;2022-08-06T04:25:30;3.25;;;0.60;;
53293;SDS011;39181;53.440;5.644;2022-08-06T04:28:00;3.15;;;0.30;;
53293;SDS011;39181;53.440;5.644;2022-08-06T04:30:27;3.78;;;0.73;;
53293;SDS011;39181;53.440;5.644;2022-08-06T04:32:53;6.18;;;0.43;;
53293;SDS011;39181;53.440;5.644;2022-08-06T04:35:19;3.63;;;0.38;;
53293;SDS011;39181;53.440;5.644;2022-08-06T04:37:46;1.92;;;0.40;;
53293;SDS011;39181;53.440;5.644;2022-08-06T04:40:12;4.63;;;0.55;;
53293;SDS011;39181;53.440;5.644;2022-08-06T04:42:39;2.88;;;0.40;;
53293;SDS011;39181;53.440;5.644;2022-08-06T04:45:06;1.38;;;0.38;;
53293;SDS011;39181;53.440;5.644;2022-08-06T04:47:33;2.22;;;0.40;;
53293;SDS011;39181;53.440;5.644;2022-08-06T04:50:00;2.35;;;0.30;;
53293;SDS011;39181;53.440;5.644;2022-08-06T04:52:27;2.72;;;0.30;;
53293;SDS011;39181;53.440;5.644;2022-08-06T04:54:54;2.35;;;0.43;;
53293;SDS011;39181;53.440;5.644;2022-08-06T04:57:19;1.17;;;0.40;;
53293;SDS011;39181;53.440;5.644;2022-08-06T04:59:45;2.05;;;0.50;;
53293;SDS011;39181;53.440;5.644;2022-08-06T05:02:11;1.30;;;0.20;;
53293;SDS011;39181;53.440;5.644;2022-08-06T05:04:37;3.08;;;0.45;;
53293;SDS011;39181;53.440;5.644;2022-08-06T05:07:12;0.90;;;0.47;;
53293;SDS011;39181;53.440;5.644;2022-08-06T05:09:43;1.88;;;0.40;;
53293;SDS011;39181;53.440;5.644;2022-08-06T05:12:15;3.63;;;0.40;;
53293;SDS011;39181;53.440;5.644;2022-08-06T05:14:56;5.50;;;0.57;;
53293;SDS011;39181;53.440;5.644;2022-08-06T05:17:24;4.15;;;0.50;;
53293;SDS011;39181;53.440;5.644;2022-08-06T05:19:57;2.05;;;0.30;;
53293;SDS011;39181;53.440;5.644;2022-08-06T05:22:26;2.92;;;0.40;;
53293;SDS011;39181;53.440;5.644;2022-08-06T05:24:53;1.10;;;0.30;;
53293;SDS011;39181;53.440;5.644;2022-08-06T05:27:19;2.47;;;0.50;;
53293;SDS011;39181;53.440;5.644;2022-08-06T05:29:45;5.20;;;0.60;;
53293;SDS011;39181;53.440;5.644;2022-08-06T05:32:11;5.03;;;0.70;;
53293;SDS011;39181;53.440;5.644;2022-08-06T05:34:37;4.07;;;0.50;;
53293;SDS011;39181;53.440;5.644;2022-08-06T05:37:02;1.30;;;0.50;;
53293;SDS011;39181;53.440;5.644;2022-08-06T05:39:28;2.25;;;0.70;;
53293;SDS011;39181;53.440;5.644;2022-08-06T05:41:53;2.03;;;0.60;;
53293;SDS011;39181;53.440;5.644;2022-08-06T05:44:19;6.93;;;0.90;;
53293;SDS011;39181;53.440;5.644;2022-08-06T05:46:52;1.70;;;0.60;;
53293;SDS011;39181;53.440;5.644;2022-08-06T05:49:28;2.28;;;0.88;;
53293;SDS011;39181;53.440;5.644;2022-08-06T05:52:10;3.00;;;0.98;;
53293;SDS011;39181;53.440;5.644;2022-08-06T05:55:02;2.35;;;0.90;;
53293;SDS011;39181;53.440;5.644;2022-08-06T05:57:36;3.65;;;0.98;;
53293;SDS011;39181;53.440;5.644;2022-08-06T06:00:06;5.32;;;0.90;;
53293;SDS011;39181;53.440;5.644;2022-08-06T06:02:37;6.30;;;1.20;;
53293;SDS011;39181;53.440;5.644;2022-08-06T06:05:05;3.75;;;0.65;;
53293;SDS011;39181;53.440;5.644;2022-08-06T06:07:32;4.53;;;1.10;;
53293;SDS011;39181;53.440;5.644;2022-08-06T06:10:00;4.63;;;0.70;;
53293;SDS011;39181;53.440;5.644;2022-08-06T06:12:28;4.22;;;0.80;;
53293;SDS011;39181;53.440;5.644;2022-08-06T06:14:55;3.42;;;0.82;;
53293;SDS011;39181;53.440;5.644;2022-08-06T06:20:20;3.00;;;0.90;;
53293;SDS011;39181;53.440;5.644;2022-08-06T06:22:59;4.60;;;1.08;;
53293;SDS011;39181;53.440;5.644;2022-08-06T06:25:31;3.50;;;0.93;;
53293;SDS011;39181;53.440;5.644;2022-08-06T06:30:50;3.17;;;0.80;;
53293;SDS011;39181;53.440;5.644;2022-08-06T06:33:49;1.88;;;0.80;;
53293;SDS011;39181;53.440;5.644;2022-08-06T06:36:36;2.95;;;0.65;;
53293;SDS011;39181;53.440;5.644;2022-08-06T06:41:49;3.60;;;1.20;;
53293;SDS011;39181;53.440;5.644;2022-08-06T06:44:21;2.92;;;0.95;;
53293;SDS011;39181;53.440;5.644;2022-08-06T06:46:58;2.28;;;0.80;;
53293;SDS011;39181;53.440;5.644;2022-08-06T06:49:39;1.67;;;0.73;;
53293;SDS011;39181;53.440;5.644;2022-08-06T06:52:14;2.60;;;1.00;;
53293;SDS011;39181;53.440;5.644;2022-08-06T06:54:47;4.35;;;1.05;;
53293;SDS011;39181;53.440;5.644;2022-08-06T06:57:20;2.83;;;1.10;;
53293;SDS011;39181;53.440;5.644;2022-08-06T06:59:49;3.30;;;1.35;;
53293;SDS011;39181;53.440;5.644;2022-08-06T07:02:24;3.88;;;1.30;;
53293;SDS011;39181;53.440;5.644;2022-08-06T07:04:51;3.95;;;0.90;;
53293;SDS011;39181;53.440;5.644;2022-08-06T07:07:18;3.70;;;1.05;;
53293;SDS011;39181;53.440;5.644;2022-08-06T07:09:45;1.70;;;0.65;;
53293;SDS011;39181;53.440;5.644;2022-08-06T07:12:12;4.93;;;1.00;;
53293;SDS011;39181;53.440;5.644;2022-08-06T07:14:40;2.60;;;1.10;;
53293;SDS011;39181;53.440;5.644;2022-08-06T07:17:09;3.33;;;1.63;;
53293;SDS011;39181;53.440;5.644;2022-08-06T07:19:36;2.05;;;0.98;;
53293;SDS011;39181;53.440;5.644;2022-08-06T07:22:02;5.53;;;1.10;;
53293;SDS011;39181;53.440;5.644;2022-08-06T07:24:30;5.70;;;1.05;;
53293;SDS011;39181;53.440;5.644;2022-08-06T07:26:58;2.75;;;1.20;;
53293;SDS011;39181;53.440;5.644;2022-08-06T07:29:26;2.40;;;1.05;;
53293;SDS011;39181;53.440;5.644;2022-08-06T07:31:54;4.15;;;0.90;;
53293;SDS011;39181;53.440;5.644;2022-08-06T07:34:20;4.28;;;1.20;;
53293;SDS011;39181;53.440;5.644;2022-08-06T07:36:48;3.17;;;1.10;;
53293;SDS011;39181;53.440;5.644;2022-08-06T07:39:23;2.28;;;1.20;;
53293;SDS011;39181;53.440;5.644;2022-08-06T07:41:52;3.05;;;0.98;;
53293;SDS011;39181;53.440;5.644;2022-08-06T07:44:20;3.75;;;1.10;;
53293;SDS011;39181;53.440;5.644;2022-08-06T07:46:48;2.35;;;1.35;;
53293;SDS011;39181;53.440;5.644;2022-08-06T07:49:20;2.87;;;1.43;;
53293;SDS011;39181;53.440;5.644;2022-08-06T07:51:48;3.05;;;1.40;;
53293;SDS011;39181;53.440;5.644;2022-08-06T07:54:16;3.45;;;1.35;;
53293;SDS011;39181;53.440;5.644;2022-08-06T07:56:44;3.85;;;1.60;;
53293;SDS011;39181;53.440;5.644;2022-08-06T07:59:10;3.58;;;1.73;;
53293;SDS011;39181;53.440;5.644;2022-08-06T08:01:36;2.38;;;1.52;;
53293;SDS011;39181;53.440;5.644;2022-08-06T08:04:06;3.33;;;1.50;;
53293;SDS011;39181;53.440;5.644;2022-08-06T08:06:52;4.50;;;1.50;;
53293;SDS011;39181;53.440;5.644;2022-08-06T08:09:19;3.53;;;1.40;;
53293;SDS011;39181;53.440;5.644;2022-08-06T08:11:48;2.58;;;1.80;;
53293;SDS011;39181;53.440;5.644;2022-08-06T08:14:15;2.03;;;1.50;;
53293;SDS011;39181;53.440;5.644;2022-08-06T08:16:43;3.22;;;1.30;;
53293;SDS011;39181;53.440;5.644;2022-08-06T08:19:19;4.00;;;1.60;;
53293;SDS011;39181;53.440;5.644;2022-08-06T08:21:49;3.40;;;1.60;;
53293;SDS011;39181;53.440;5.644;2022-08-06T08:24:16;5.18;;;2.03;;
53293;SDS011;39181;53.440;5.644;2022-08-06T08:26:41;2.45;;;1.90;;
53293;SDS011;39181;53.440;5.644;2022-08-06T08:29:07;2.75;;;1.75;;
53293;SDS011;39181;53.440;5.644;2022-08-06T08:31:35;2.00;;;1.55;;
53293;SDS011;39181;53.440;5.644;2022-08-06T08:34:00;3.50;;;1.80;;
53293;SDS011;39181;53.440;5.644;2022-08-06T08:36:26;2.70;;;1.92;;
53293;SDS011;39181;53.440;5.644;2022-08-06T08:38:52;3.15;;;1.85;;
53293;SDS011;39181;53.440;5.644;2022-08-06T08:41:25;6.38;;;2.20;;
53293;SDS011;39181;53.440;5.644;2022-08-06T08:43:59;3.03;;;1.80;;
53293;SDS011;39181;53.440;5.644;2022-08-06T08:46:33;1.83;;;1.55;;
53293;SDS011;39181;53.440;5.644;2022-08-06T08:49:03;4.95;;;1.88;;
53293;SDS011;39181;53.440;5.644;2022-08-06T08:51:37;2.50;;;1.70;;
53293;SDS011;39181;53.440;5.644;2022-08-06T08:54:05;2.05;;;1.80;;
53293;SDS011;39181;53.440;5.644;2022-08-06T08:56:33;3.88;;;1.60;;
53293;SDS011;39181;53.440;5.644;2022-08-06T08:58:59;2.88;;;1.75;;
53293;SDS011;39181;53.440;5.644;2022-08-06T09:01:25;2.20;;;1.60;;
53293;SDS011;39181;53.440;5.644;2022-08-06T09:03:51;6.38;;;1.80;;
53293;SDS011;39181;53.440;5.644;2022-08-06T09:06:17;3.53;;;1.60;;
53293;SDS011;39181;53.440;5.644;2022-08-06T09:08:45;4.40;;;1.80;;
53293;SDS011;39181;53.440;5.644;2022-08-06T09:11:13;3.97;;;1.55;;
53293;SDS011;39181;53.440;5.644;2022-08-06T09:13:39;3.25;;;1.65;;
53293;SDS011;39181;53.440;5.644;2022-08-06T09:16:05;2.60;;;1.60;;
53293;SDS011;39181;53.440;5.644;2022-08-06T09:18:31;2.10;;;1.52;;
53293;SDS011;39181;53.440;5.644;2022-08-06T09:21:01;4.10;;;1.50;;
53293;SDS011;39181;53.440;5.644;2022-08-06T09:23:27;4.38;;;1.55;;
53293;SDS011;39181;53.440;5.644;2022-08-06T09:25:53;3.50;;;1.90;;
53293;SDS011;39181;53.440;5.644;2022-08-06T09:28:33;3.33;;;1.63;;
53293;SDS011;39181;53.440;5.644;2022-08-06T09:31:09;2.00;;;1.33;;
53293;SDS011;39181;53.440;5.644;2022-08-06T09:33:37;3.55;;;1.90;;
53293;SDS011;39181;53.440;5.644;2022-08-06T09:38:48;2.78;;;1.52;;
53293;SDS011;39181;53.440;5.644;2022-08-06T09:41:23;3.05;;;1.58;;
53293;SDS011;39181;53.440;5.644;2022-08-06T09:43:50;3.25;;;1.67;;
53293;SDS011;39181;53.440;5.644;2022-08-06T09:46:19;4.00;;;2.00;;
53293;SDS011;39181;53.440;5.644;2022-08-06T09:49:04;3.05;;;1.40;;
53293;SDS011;39181;53.440;5.644;2022-08-06T09:51:30;3.13;;;1.65;;
53293;SDS011;39181;53.440;5.644;2022-08-06T09:53:59;3.85;;;1.60;;
53293;SDS011;39181;53.440;5.644;2022-08-06T09:56:26;2.05;;;1.27;;
53293;SDS011;39181;53.440;5.644;2022-08-06T09:58:59;2.40;;;1.23;;
53293;SDS011;39181;53.440;5.644;2022-08-06T10:01:26;2.08;;;1.50;;
53293;SDS011;39181;53.440;5.644;2022-08-06T10:03:53;3.30;;;1.50;;
53293;SDS011;39181;53.440;5.644;2022-08-06T10:06:20;2.85;;;1.52;;
53293;SDS011;39181;53.440;5.644;2022-08-06T10:08:46;1.65;;;1.20;;
53293;SDS011;39181;53.440;5.644;2022-08-06T10:11:13;2.35;;;1.27;;
53293;SDS011;39181;53.440;5.644;2022-08-06T10:13:39;1.92;;;1.45;;
53293;SDS011;39181;53.440;5.644;2022-08-06T10:16:19;2.65;;;1.58;;
53293;SDS011;39181;53.440;5.644;2022-08-06T10:18:51;4.10;;;1.88;;
53293;SDS011;39181;53.440;5.644;2022-08-06T10:21:19;3.50;;;1.35;;
53293;SDS011;39181;53.440;5.644;2022-08-06T10:23:51;4.43;;;1.40;;
53293;SDS011;39181;53.440;5.644;2022-08-06T10:26:22;6.47;;;1.63;;
53293;SDS011;39181;53.440;5.644;2022-08-06T10:28:53;2.38;;;1.20;;
53293;SDS011;39181;53.440;5.644;2022-08-06T10:31:19;2.95;;;1.40;;
53293;SDS011;39181;53.440;5.644;2022-08-06T10:36:34;3.97;;;1.40;;
53293;SDS011;39181;53.440;5.644;2022-08-06T10:39:04;3.90;;;1.58;;
53293;SDS011;39181;53.440;5.644;2022-08-06T10:41:31;2.40;;;1.13;;
53293;SDS011;39181;53.440;5.644;2022-08-06T10:44:00;3.03;;;1.40;;
53293;SDS011;39181;53.440;5.644;2022-08-06T10:46:27;1.95;;;1.30;;
53293;SDS011;39181;53.440;5.644;2022-08-06T10:48:53;2.97;;;1.35;;
53293;SDS011;39181;53.440;5.644;2022-08-06T10:51:20;6.50;;;1.33;;
53293;SDS011;39181;53.440;5.644;2022-08-06T10:53:46;2.17;;;1.30;;
53293;SDS011;39181;53.440;5.644;2022-08-06T10:56:14;2.85;;;1.60;;
53293;SDS011;39181;53.440;5.644;2022-08-06T10:58:41;3.00;;;1.50;;
53293;SDS011;39181;53.440;5.644;2022-08-06T11:01:30;4.22;;;1.50;;
53293;SDS011;39181;53.440;5.644;2022-08-06T11:04:13;3.45;;;1.25;;
53293;SDS011;39181;53.440;5.644;2022-08-06T11:06:44;2.47;;;1.55;;
53293;SDS011;39181;53.440;5.644;2022-08-06T11:12:26;1.20;;;1.10;;
53293;SDS011;39181;53.440;5.644;2022-08-06T11:14:59;1.50;;;1.20;;
53293;SDS011;39181;53.440;5.644;2022-08-06T11:17:25;1.52;;;1.20;;
53293;SDS011;39181;53.440;5.644;2022-08-06T11:20:19;2.80;;;1.50;;
53293;SDS011;39181;53.440;5.644;2022-08-06T11:22:57;1.92;;;1.27;;
53293;SDS011;39181;53.440;5.644;2022-08-06T11:28:04;2.88;;;1.48;;
53293;SDS011;39181;53.440;5.644;2022-08-06T11:30:37;3.22;;;1.67;;
53293;SDS011;39181;53.440;5.644;2022-08-06T11:35:57;5.30;;;1.38;;
53293;SDS011;39181;53.440;5.644;2022-08-06T11:41:20;3.90;;;1.35;;
53293;SDS011;39181;53.440;5.644;2022-08-06T11:51:41;3.30;;;1.50;;
53293;SDS011;39181;53.440;5.644;2022-08-06T11:54:19;3.63;;;2.40;;
53293;SDS011;39181;53.440;5.644;2022-08-06T11:59:33;2.90;;;1.70;;
53293;SDS011;39181;53.440;5.644;2022-08-06T12:02:04;3.53;;;1.90;;
53293;SDS011;39181;53.440;5.644;2022-08-06T12:07:43;1.90;;;1.73;;
53293;SDS011;39181;53.440;5.644;2022-08-06T12:10:07;2.47;;;1.60;;
53293;SDS011;39181;53.440;5.644;2022-08-06T12:20:29;1.95;;;1.60;;
53293;SDS011;39181;53.440;5.644;2022-08-06T12:23:03;2.13;;;1.80;;
53293;SDS011;39181;53.440;5.644;2022-08-06T12:25:36;3.45;;;1.60;;
53293;SDS011;39181;53.440;5.644;2022-08-06T12:28:04;1.67;;;1.52;;
53293;SDS011;39181;53.440;5.644;2022-08-06T12:30:39;2.03;;;1.70;;
53293;SDS011;39181;53.440;5.644;2022-08-06T12:33:13;2.22;;;1.70;;
53293;SDS011;39181;53.440;5.644;2022-08-06T12:35:55;3.00;;;1.58;;
53293;SDS011;39181;53.440;5.644;2022-08-06T12:38:26;2.85;;;1.70;;
53293;SDS011;39181;53.440;5.644;2022-08-06T12:40:59;2.78;;;1.50;;
53293;SDS011;39181;53.440;5.644;2022-08-06T12:43:33;2.40;;;1.48;;
53293;SDS011;39181;53.440;5.644;2022-08-06T12:46:03;3.95;;;1.70;;
53293;SDS011;39181;53.440;5.644;2022-08-06T12:48:32;2.15;;;1.50;;
53293;SDS011;39181;53.440;5.644;2022-08-06T12:51:06;3.03;;;1.50;;
53293;SDS011;39181;53.440;5.644;2022-08-06T12:53:37;1.77;;;1.45;;
53293;SDS011;39181;53.440;5.644;2022-08-06T12:56:05;2.17;;;1.50;;
53293;SDS011;39181;53.440;5.644;2022-08-06T12:58:32;3.58;;;1.58;;
53293;SDS011;39181;53.440;5.644;2022-08-06T13:01:00;1.98;;;1.30;;
53293;SDS011;39181;53.440;5.644;2022-08-06T13:03:28;2.55;;;1.40;;
53293;SDS011;39181;53.440;5.644;2022-08-06T13:05:57;2.50;;;1.40;;
53293;SDS011;39181;53.440;5.644;2022-08-06T13:08:24;1.98;;;1.17;;
53293;SDS011;39181;53.440;5.644;2022-08-06T13:10:52;3.30;;;1.67;;
53293;SDS011;39181;53.440;5.644;2022-08-06T13:13:19;3.38;;;1.63;;
53293;SDS011;39181;53.440;5.644;2022-08-06T13:16:01;2.78;;;1.60;;
53293;SDS011;39181;53.440;5.644;2022-08-06T13:18:32;1.67;;;1.23;;
53293;SDS011;39181;53.440;5.644;2022-08-06T13:20:58;3.55;;;1.70;;
53293;SDS011;39181;53.440;5.644;2022-08-06T13:23:28;1.90;;;1.42;;
53293;SDS011;39181;53.440;5.644;2022-08-06T13:25:55;1.90;;;1.70;;
53293;SDS011;39181;53.440;5.644;2022-08-06T13:28:21;2.97;;;1.50;;
53293;SDS011;39181;53.440;5.644;2022-08-06T13:30:49;3.05;;;2.30;;
53293;SDS011;39181;53.440;5.644;2022-08-06T13:33:19;2.80;;;1.63;;
53293;SDS011;39181;53.440;5.644;2022-08-06T13:35:52;4.05;;;1.42;;
53293;SDS011;39181;53.440;5.644;2022-08-06T13:38:35;2.33;;;1.90;;
53293;SDS011;39181;53.440;5.644;2022-08-06T13:41:02;1.95;;;1.30;;
53293;SDS011;39181;53.440;5.644;2022-08-06T13:46:04;4.03;;;1.63;;
53293;SDS011;39181;53.440;5.644;2022-08-06T13:48:31;1.90;;;1.42;;
53293;SDS011;39181;53.440;5.644;2022-08-06T13:50:56;2.00;;;1.33;;
53293;SDS011;39181;53.440;5.644;2022-08-06T13:53:22;2.30;;;1.50;;
53293;SDS011;39181;53.440;5.644;2022-08-06T13:55:47;3.47;;;1.73;;
53293;SDS011;39181;53.440;5.644;2022-08-06T13:58:13;3.03;;;1.58;;
53293;SDS011;39181;53.440;5.644;2022-08-06T14:00:39;3.92;;;1.60;;
53293;SDS011;39181;53.440;5.644;2022-08-06T14:03:06;3.47;;;1.40;;
53293;SDS011;39181;53.440;5.644;2022-08-06T14:05:32;1.58;;;1.30;;
53293;SDS011;39181;53.440;5.644;2022-08-06T14:07:57;3.83;;;1.65;;
53293;SDS011;39181;53.440;5.644;2022-08-06T14:10:23;3.55;;;1.77;;
53293;SDS011;39181;53.440;5.644;2022-08-06T14:12:48;4.47;;;1.45;;
53293;SDS011;39181;53.440;5.644;2022-08-06T14:15:32;2.03;;;1.40;;
53293;SDS011;39181;53.440;5.644;2022-08-06T14:17:59;1.95;;;1.70;;
53293;SDS011;39181;53.440;5.644;2022-08-06T14:20:24;2.75;;;1.45;;
53293;SDS011;39181;53.440;5.644;2022-08-06T14:22:50;4.15;;;1.63;;
53293;SDS011;39181;53.440;5.644;2022-08-06T14:25:17;2.60;;;1.60;;
53293;SDS011;39181;53.440;5.644;2022-08-06T14:27:42;3.35;;;1.70;;
53293;SDS011;39181;53.440;5.644;2022-08-06T14:30:08;1.70;;;1.60;;
53293;SDS011;39181;53.440;5.644;2022-08-06T14:32:34;1.55;;;1.45;;
53293;SDS011;39181;53.440;5.644;2022-08-06T14:35:00;2.80;;;1.80;;
53293;SDS011;39181;53.440;5.644;2022-08-06T14:37:25;3.35;;;1.60;;
53293;SDS011;39181;53.440;5.644;2022-08-06T14:39:51;2.13;;;1.80;;
53293;SDS011;39181;53.440;5.644;2022-08-06T14:42:16;1.85;;;1.75;;
53293;SDS011;39181;53.440;5.644;2022-08-06T14:45:01;2.08;;;1.70;;
53293;SDS011;39181;53.440;5.644;2022-08-06T14:47:31;2.78;;;1.73;;
53293;SDS011;39181;53.440;5.644;2022-08-06T14:49:57;1.88;;;1.48;;
53293;SDS011;39181;53.440;5.644;2022-08-06T14:52:22;2.38;;;1.92;;
53293;SDS011;39181;53.440;5.644;2022-08-06T14:54:48;3.45;;;1.90;;
53293;SDS011;39181;53.440;5.644;2022-08-06T14:57:14;3.65;;;2.28;;
53293;SDS011;39181;53.440;5.644;2022-08-06T14:59:40;3.53;;;1.95;;
53293;SDS011;39181;53.440;5.644;2022-08-06T15:02:06;2.88;;;2.00;;
53293;SDS011;39181;53.440;5.644;2022-08-06T15:04:32;2.58;;;1.48;;
53293;SDS011;39181;53.440;5.644;2022-08-06T15:06:58;2.78;;;1.58;;
53293;SDS011;39181;53.440;5.644;2022-08-06T15:09:23;3.58;;;1.83;;
53293;SDS011;39181;53.440;5.644;2022-08-06T15:11:49;3.28;;;1.67;;
53293;SDS011;39181;53.440;5.644;2022-08-06T15:14:15;1.98;;;1.45;;
53293;SDS011;39181;53.440;5.644;2022-08-06T15:16:40;2.80;;;1.80;;
53293;SDS011;39181;53.440;5.644;2022-08-06T15:19:06;3.05;;;1.40;;
53293;SDS011;39181;53.440;5.644;2022-08-06T15:21:32;2.30;;;1.42;;
53293;SDS011;39181;53.440;5.644;2022-08-06T15:23:57;4.05;;;1.40;;
53293;SDS011;39181;53.440;5.644;2022-08-06T15:26:24;2.03;;;1.80;;
53293;SDS011;39181;53.440;5.644;2022-08-06T15:28:51;1.63;;;1.48;;
53293;SDS011;39181;53.440;5.644;2022-08-06T15:31:17;1.67;;;1.55;;
53293;SDS011;39181;53.440;5.644;2022-08-06T15:33:44;4.13;;;1.63;;
53293;SDS011;39181;53.440;5.644;2022-08-06T15:36:10;2.13;;;1.40;;
53293;SDS011;39181;53.440;5.644;2022-08-06T15:38:37;2.55;;;1.38;;
53293;SDS011;39181;53.440;5.644;2022-08-06T15:41:03;1.50;;;1.38;;
53293;SDS011;39181;53.440;5.644;2022-08-06T15:43:29;1.63;;;1.30;;
53293;SDS011;39181;53.440;5.644;2022-08-06T15:45:55;3.33;;;1.60;;
53293;SDS011;39181;53.440;5.644;2022-08-06T15:48:23;2.33;;;1.58;;
53293;SDS011;39181;53.440;5.644;2022-08-06T15:50:51;1.92;;;1.45;;
53293;SDS011;39181;53.440;5.644;2022-08-06T15:53:17;2.35;;;1.50;;
53293;SDS011;39181;53.440;5.644;2022-08-06T15:55:44;3.03;;;1.48;;
53293;SDS011;39181;53.440;5.644;2022-08-06T15:58:10;1.98;;;1.35;;
53293;SDS011;39181;53.440;5.644;2022-08-06T16:00:37;3.75;;;1.40;;
53293;SDS011;39181;53.440;5.644;2022-08-06T16:03:04;5.25;;;1.02;;